Terminal Aerodrome Forecast
Issued by NWS

Home | Current Version | Previous Version | Text Only | Print | Product List | Glossary On
Versions: 1 2 3 4 5 6 7 8 9 10 11 12 13 14 15 16 17 18 19 20 21 22 23 24 25 26 27 28 29 30 31 32 33 34 35 36 37 38 39 40 41 42 43 44 45 46 47 48 49 50
000
FTUS45 KBOU 300345 CCA
TAFAPA
TAF COR
KAPA 300345Z 3004/3024 01012G20KT P6SM VCTS SCT009 BKN035CB OVC060
      TEMPO 3004/3005 -TSRA SCT009 BKN015CB
     FM300500 27010KT P6SM SCT030 BKN060
     FM300600 21008KT P6SM SCT060 BKN120
     FM301700 25007KT P6SM FEW070 SCT120
     FM302100 33008KT P6SM SCT070 SCT120=

USA.gov is the U.S. government's official web portal to all federal, state and local government web resources and services.